Terminal Aerodrome Forecast
Issued by NWS

Home | Current Version | Previous Version | Text Only | Print | Product List | Glossary On
Versions: 1 2 3 4 5 6 7 8 9 10 11 12 13 14 15 16 17
000
FTUS43 KOAX 281740
TAFCDR
TAF
KCDR 281740Z 2818/2918 31006KT P6SM OVC060
     FM282000 03008KT P6SM OVC025
      TEMPO 2820/2824 2SM -SN BR OVC015
     FM290000 04008KT 2SM -SN BR OVC015
     FM290600 03008KT 3/4SM -SN BR OVC009=

USA.gov is the U.S. government's official web portal to all federal, state and local government web resources and services.